createdAt,value
2022-12-25T00:01:52.586Z,10.55
2022-12-25T00:04:20.724Z,10.63
2022-12-25T00:06:48.817Z,10.67
2022-12-25T00:09:18.494Z,10.62
2022-12-25T00:11:46.533Z,10.60
2022-12-25T00:14:14.598Z,10.62
2022-12-25T00:16:42.774Z,10.66
2022-12-25T00:19:10.922Z,10.68
2022-12-25T00:21:39.001Z,10.58
2022-12-25T00:24:07.742Z,10.58
2022-12-25T00:26:37.172Z,10.57
2022-12-25T00:29:05.240Z,10.60
2022-12-25T00:31:34.649Z,10.63
2022-12-25T00:34:02.799Z,10.54
2022-12-25T00:36:33.635Z,10.52
2022-12-25T00:39:04.880Z,10.49
2022-12-25T00:41:50.258Z,10.42
2022-12-25T00:44:19.700Z,10.44
2022-12-25T00:46:47.832Z,10.42
2022-12-25T00:49:16.003Z,10.43
2022-12-25T00:51:44.193Z,10.41
2022-12-25T00:54:12.226Z,10.23
2022-12-25T00:56:40.237Z,10.29
2022-12-25T00:59:08.487Z,10.41
2022-12-25T01:01:40.181Z,10.46
2022-12-25T01:04:08.871Z,10.40
2022-12-25T01:06:36.893Z,10.44
2022-12-25T01:09:22.647Z,10.46
2022-12-25T01:11:50.727Z,10.42
2022-12-25T01:14:18.773Z,10.41
2022-12-25T01:16:48.241Z,10.45
2022-12-25T01:19:16.296Z,10.46
2022-12-25T01:21:44.349Z,10.46
2022-12-25T01:24:12.405Z,10.50
2022-12-25T01:26:40.420Z,10.45
2022-12-25T01:29:08.466Z,10.51
2022-12-25T01:31:36.813Z,10.49
2022-12-25T01:34:06.257Z,10.44
2022-12-25T01:36:34.245Z,10.50
2022-12-25T01:39:02.282Z,10.50
2022-12-25T01:41:30.402Z,10.49
2022-12-25T01:44:02.289Z,10.49
2022-12-25T01:46:31.497Z,10.52
2022-12-25T01:49:03.270Z,10.45
2022-12-25T01:51:36.612Z,10.48
2022-12-25T01:54:08.194Z,10.48
2022-12-25T01:56:38.279Z,10.43
2022-12-25T01:59:08.808Z,10.49
2022-12-25T02:01:37.087Z,10.45
2022-12-25T02:04:09.729Z,10.54
2022-12-25T02:06:39.129Z,10.58
2022-12-25T02:09:07.404Z,10.57
2022-12-25T02:11:53.221Z,10.65
2022-12-25T02:14:22.285Z,10.66
2022-12-25T02:16:57.397Z,10.65
2022-12-25T02:19:44.368Z,10.69
2022-12-25T02:22:25.627Z,10.64
2022-12-25T02:25:14.364Z,10.60
2022-12-25T02:28:00.172Z,10.63
2022-12-25T02:30:33.991Z,10.69
2022-12-25T02:33:20.215Z,10.67
2022-12-25T02:35:53.182Z,10.72
2022-12-25T02:38:27.337Z,10.79
2022-12-25T02:40:57.943Z,10.74
2022-12-25T02:43:50.034Z,10.67
2022-12-25T02:46:37.456Z,10.65
2022-12-25T02:49:25.645Z,10.69
2022-12-25T02:52:15.353Z,10.71
2022-12-25T02:55:04.088Z,10.68
2022-12-25T02:57:54.021Z,10.71
2022-12-25T03:00:40.961Z,10.71
2022-12-25T03:03:30.800Z,10.71
2022-12-25T03:06:25.636Z,10.65
2022-12-25T03:09:17.347Z,10.78
2022-12-25T03:11:47.680Z,10.94
2022-12-25T03:14:33.283Z,10.88
2022-12-25T03:17:02.902Z,10.89
2022-12-25T03:19:51.805Z,10.99
2022-12-25T03:22:43.205Z,10.98
2022-12-25T03:25:28.159Z,10.93
2022-12-25T03:27:57.875Z,11.08
2022-12-25T03:30:48.168Z,11.13
2022-12-25T03:33:44.538Z,11.16
2022-12-25T03:36:18.797Z,11.12
2022-12-25T03:39:27.678Z,11.15
2022-12-25T03:42:18.776Z,11.26
2022-12-25T03:45:10.527Z,11.29
2022-12-25T03:47:58.017Z,11.31
2022-12-25T03:50:51.373Z,11.25
2022-12-25T03:53:43.255Z,11.37
2022-12-25T03:56:29.880Z,11.41
2022-12-25T03:59:23.162Z,11.53
2022-12-25T04:02:09.518Z,11.54
2022-12-25T04:04:55.487Z,11.58
2022-12-25T04:07:42.442Z,11.68
2022-12-25T04:10:28.761Z,11.62
2022-12-25T04:13:13.933Z,11.67
2022-12-25T04:15:59.522Z,11.78
2022-12-25T04:18:44.873Z,11.76
2022-12-25T04:21:30.040Z,11.81
2022-12-25T04:24:17.215Z,11.79
2022-12-25T04:27:02.317Z,11.87
2022-12-25T04:29:47.655Z,11.90
2022-12-25T04:32:32.947Z,11.96
2022-12-25T04:35:20.505Z,11.91
2022-12-25T04:37:48.537Z,11.96
2022-12-25T04:40:18.312Z,11.90
2022-12-25T04:42:46.427Z,11.99
2022-12-25T04:45:14.461Z,12.02
2022-12-25T04:47:42.601Z,12.12
2022-12-25T04:50:11.167Z,12.07
2022-12-25T04:52:40.708Z,12.13
2022-12-25T04:55:11.066Z,12.12
2022-12-25T04:57:40.787Z,12.12
2022-12-25T05:00:10.185Z,12.18
2022-12-25T05:02:38.449Z,12.26
2022-12-25T05:05:07.051Z,12.19
2022-12-25T05:07:35.087Z,12.42
2022-12-25T05:10:03.157Z,12.36
2022-12-25T05:12:31.187Z,12.41
2022-12-25T05:15:00.595Z,12.50
2022-12-25T05:17:28.673Z,12.53
2022-12-25T05:19:56.765Z,12.57
2022-12-25T05:22:24.824Z,12.57
2022-12-25T05:24:52.879Z,12.47
2022-12-25T05:27:20.908Z,12.56
2022-12-25T05:29:49.035Z,12.62
2022-12-25T05:32:18.458Z,12.73
2022-12-25T05:34:46.459Z,12.81
2022-12-25T05:37:14.888Z,12.79
2022-12-25T05:39:42.936Z,12.73
2022-12-25T05:42:10.979Z,12.84
2022-12-25T05:44:39.022Z,12.88
2022-12-25T05:47:07.109Z,12.78
2022-12-25T05:49:36.515Z,12.76
2022-12-25T05:52:04.930Z,12.88
2022-12-25T05:54:33.018Z,12.84
2022-12-25T05:57:01.034Z,12.96
2022-12-25T05:59:30.728Z,12.99
2022-12-25T06:01:58.888Z,12.92
2022-12-25T06:04:27.515Z,12.99
2022-12-25T06:06:57.000Z,13.00
2022-12-25T06:09:25.045Z,13.00
2022-12-25T06:11:53.052Z,13.08
2022-12-25T06:14:21.088Z,13.23
2022-12-25T06:16:52.643Z,13.22
2022-12-25T06:19:21.378Z,13.24
2022-12-25T06:21:49.800Z,13.24
2022-12-25T06:24:21.497Z,13.12
2022-12-25T06:26:49.942Z,13.26
2022-12-25T06:29:18.117Z,13.23
2022-12-25T06:31:46.419Z,13.30
2022-12-25T06:34:16.475Z,13.33
2022-12-25T06:36:44.618Z,13.10
2022-12-25T06:39:12.649Z,13.32
2022-12-25T06:41:42.080Z,13.38
2022-12-25T06:44:10.248Z,13.46
2022-12-25T06:46:38.331Z,13.41
2022-12-25T06:49:06.663Z,13.30
2022-12-25T06:51:35.198Z,13.56
2022-12-25T06:54:04.343Z,13.51
2022-12-25T06:56:33.442Z,13.55
2022-12-25T06:59:04.962Z,13.61
2022-12-25T07:01:36.900Z,13.53
2022-12-25T07:04:07.079Z,13.52
2022-12-25T07:06:35.609Z,13.66
2022-12-25T07:09:03.829Z,13.59
2022-12-25T07:11:31.891Z,13.70
2022-12-25T07:13:59.927Z,13.64
2022-12-25T07:16:29.651Z,13.64
2022-12-25T07:19:00.111Z,13.69
2022-12-25T07:21:28.248Z,13.73
2022-12-25T07:23:56.253Z,13.69
2022-12-25T07:26:24.304Z,13.74
2022-12-25T07:28:52.404Z,13.81
2022-12-25T07:31:20.479Z,13.70
2022-12-25T07:33:53.736Z,13.81
2022-12-25T07:36:22.196Z,13.74
2022-12-25T07:38:51.004Z,13.89
2022-12-25T07:41:19.107Z,13.80
2022-12-25T07:43:50.921Z,13.88
2022-12-25T07:46:19.118Z,13.89
2022-12-25T07:48:47.169Z,13.94
2022-12-25T07:51:17.358Z,13.90
2022-12-25T07:53:45.467Z,13.83
2022-12-25T07:56:15.822Z,13.79
2022-12-25T07:58:44.733Z,13.84
2022-12-25T08:01:14.988Z,13.91
2022-12-25T08:03:43.332Z,13.86
2022-12-25T08:06:12.373Z,13.89
2022-12-25T08:08:42.212Z,13.82
2022-12-25T08:11:10.915Z,13.80
2022-12-25T08:13:39.222Z,13.78
2022-12-25T08:16:09.730Z,13.85
2022-12-25T08:18:38.833Z,13.93
2022-12-25T08:21:09.684Z,13.90
2022-12-25T08:23:39.590Z,13.89
2022-12-25T08:26:12.098Z,13.81
2022-12-25T08:28:40.165Z,13.80
2022-12-25T08:31:13.228Z,13.93
2022-12-25T08:33:41.345Z,13.82
2022-12-25T08:36:10.945Z,13.96
2022-12-25T08:38:39.813Z,13.91
2022-12-25T08:41:09.864Z,13.98
2022-12-25T08:43:37.921Z,14.00
2022-12-25T08:46:06.916Z,14.04
2022-12-25T08:48:35.656Z,14.03
2022-12-25T08:51:04.597Z,13.96
2022-12-25T08:53:32.651Z,14.07
2022-12-25T08:56:04.382Z,14.04
2022-12-25T08:58:34.018Z,14.01
2022-12-25T09:01:02.301Z,14.06
2022-12-25T09:03:32.429Z,14.07
2022-12-25T09:06:04.201Z,14.09
2022-12-25T09:08:32.351Z,14.14
2022-12-25T09:11:03.159Z,14.04
2022-12-25T09:13:31.241Z,14.05
2022-12-25T09:16:00.836Z,14.17
2022-12-25T09:18:28.959Z,14.17
2022-12-25T09:21:00.710Z,14.11
2022-12-25T09:23:29.232Z,14.11
2022-12-25T09:25:59.498Z,14.13
2022-12-25T09:28:27.863Z,14.22
2022-12-25T09:30:56.265Z,14.20
2022-12-25T09:33:26.575Z,14.29
2022-12-25T09:35:55.824Z,14.29
2022-12-25T09:38:24.349Z,14.29
2022-12-25T09:41:00.440Z,14.36
2022-12-25T09:43:31.925Z,14.28
2022-12-25T09:46:01.690Z,14.28
2022-12-25T09:48:34.767Z,14.34
2022-12-25T09:51:10.639Z,14.28
2022-12-25T09:53:41.690Z,14.33
2022-12-25T09:56:13.763Z,14.34
2022-12-25T09:58:41.801Z,14.37
2022-12-25T10:01:30.345Z,14.36
2022-12-25T10:04:28.118Z,14.30
2022-12-25T10:07:06.659Z,14.23
2022-12-25T10:09:48.423Z,14.25
2022-12-25T10:12:33.397Z,14.27
2022-12-25T10:15:23.020Z,14.26
2022-12-25T10:18:10.056Z,14.33
2022-12-25T10:20:47.384Z,14.29
2022-12-25T10:23:20.398Z,14.34
2022-12-25T10:25:49.428Z,14.32
2022-12-25T10:28:27.816Z,14.39
2022-12-25T10:30:59.778Z,14.35
2022-12-25T10:33:29.024Z,14.39
2022-12-25T10:35:58.820Z,14.39
2022-12-25T10:38:26.897Z,14.43
2022-12-25T10:41:18.944Z,14.30
2022-12-25T10:43:50.109Z,14.41
2022-12-25T10:46:20.440Z,14.43
2022-12-25T10:48:51.764Z,14.50
2022-12-25T10:51:31.793Z,14.51
2022-12-25T10:54:00.871Z,14.57
2022-12-25T10:56:29.004Z,14.58
2022-12-25T10:59:06.148Z,14.50
2022-12-25T11:01:34.768Z,14.58
2022-12-25T11:04:03.488Z,14.66
2022-12-25T11:06:34.625Z,14.60
2022-12-25T11:09:04.398Z,14.64
2022-12-25T11:11:32.832Z,14.66
2022-12-25T11:14:02.666Z,14.60
2022-12-25T11:16:33.819Z,14.51
2022-12-25T11:19:02.144Z,14.51
2022-12-25T11:21:33.898Z,14.45
2022-12-25T11:24:04.148Z,14.55
2022-12-25T11:26:37.588Z,14.55
2022-12-25T11:29:13.786Z,14.47
2022-12-25T11:31:44.321Z,14.56
2022-12-25T11:34:25.128Z,14.59
2022-12-25T11:36:54.719Z,14.65
2022-12-25T11:39:28.324Z,14.71
2022-12-25T11:42:00.955Z,14.75
2022-12-25T11:44:37.426Z,14.60
2022-12-25T11:47:14.742Z,14.74
2022-12-25T11:49:50.627Z,14.83
2022-12-25T11:52:22.436Z,14.91
2022-12-25T11:54:56.499Z,14.88
2022-12-25T11:57:27.631Z,14.84
2022-12-25T12:00:01.762Z,14.88
2022-12-25T12:02:37.669Z,14.93
2022-12-25T12:05:14.821Z,14.86
2022-12-25T12:07:54.391Z,14.89
2022-12-25T12:10:28.865Z,14.84
2022-12-25T12:13:04.947Z,14.86
2022-12-25T12:15:42.306Z,14.85
2022-12-25T12:18:19.037Z,14.91
2022-12-25T12:20:59.067Z,14.95
2022-12-25T12:23:30.024Z,14.99
2022-12-25T12:25:58.514Z,15.01
2022-12-25T12:28:29.081Z,15.06
2022-12-25T12:31:02.711Z,15.03
2022-12-25T12:33:35.875Z,14.97
2022-12-25T12:36:05.806Z,15.00
2022-12-25T12:38:36.275Z,14.99
2022-12-25T12:41:07.556Z,15.02
2022-12-25T12:43:40.567Z,14.96
2022-12-25T12:46:22.902Z,14.97
2022-12-25T12:48:57.465Z,14.91
2022-12-25T12:51:32.962Z,14.89
2022-12-25T12:54:20.947Z,14.81
2022-12-25T12:57:06.266Z,14.77
2022-12-25T12:59:40.989Z,14.75
2022-12-25T13:02:33.167Z,14.79
2022-12-25T13:05:06.381Z,14.78
2022-12-25T13:07:50.010Z,14.67
2022-12-25T13:10:30.558Z,14.72
2022-12-25T13:13:02.685Z,14.68
2022-12-25T13:15:39.287Z,14.67
2022-12-25T13:18:14.088Z,14.66
2022-12-25T13:20:48.400Z,14.60
2022-12-25T13:23:28.144Z,14.63
2022-12-25T13:25:59.762Z,14.64
2022-12-25T13:28:33.760Z,14.67
2022-12-25T13:31:09.245Z,14.66
2022-12-25T13:33:39.297Z,14.69
2022-12-25T13:36:12.997Z,14.66
2022-12-25T13:38:48.774Z,14.67
2022-12-25T13:41:50.535Z,14.68
2022-12-25T13:44:35.023Z,14.73
2022-12-25T13:47:19.039Z,14.79
2022-12-25T13:49:50.030Z,14.86
2022-12-25T13:52:22.388Z,14.79
2022-12-25T13:55:02.450Z,14.78
2022-12-25T13:57:40.903Z,14.81
2022-12-25T14:00:19.484Z,14.85
2022-12-25T14:02:48.405Z,14.91
2022-12-25T14:05:28.740Z,14.80
2022-12-25T14:07:58.833Z,14.78
2022-12-25T14:10:31.063Z,14.70
2022-12-25T14:13:04.823Z,14.66
2022-12-25T14:15:36.362Z,14.58
2022-12-25T14:18:04.594Z,14.62
2022-12-25T14:20:38.003Z,14.60
2022-12-25T14:23:07.343Z,14.65
2022-12-25T14:25:41.916Z,14.60
2022-12-25T14:28:19.707Z,14.57
2022-12-25T14:30:48.196Z,14.52
2022-12-25T14:33:18.993Z,14.56
2022-12-25T14:35:48.430Z,14.50
2022-12-25T14:38:24.041Z,14.45
2022-12-25T14:41:00.627Z,14.29
2022-12-25T14:43:31.303Z,14.29
2022-12-25T14:46:02.728Z,14.21
2022-12-25T14:48:32.819Z,14.11
2022-12-25T14:51:04.373Z,14.24
2022-12-25T14:53:37.334Z,14.20
2022-12-25T14:56:09.460Z,14.13
2022-12-25T14:58:43.827Z,14.01
2022-12-25T15:01:22.056Z,14.10
2022-12-25T15:03:50.643Z,14.15
2022-12-25T15:06:21.143Z,14.14
2022-12-25T15:08:58.076Z,14.04
2022-12-25T15:11:26.212Z,14.05
2022-12-25T15:13:55.601Z,14.07
2022-12-25T15:16:25.970Z,14.12
2022-12-25T15:18:55.517Z,14.06
2022-12-25T15:21:27.463Z,13.99
2022-12-25T15:23:56.919Z,13.97
2022-12-25T15:26:25.763Z,13.99
2022-12-25T15:28:55.214Z,13.94
2022-12-25T15:31:27.378Z,13.90
2022-12-25T15:33:57.398Z,13.84
2022-12-25T15:36:26.389Z,13.92
2022-12-25T15:38:54.932Z,13.95
2022-12-25T15:41:43.802Z,14.01
2022-12-25T15:44:13.823Z,13.94
2022-12-25T15:46:42.067Z,14.07
2022-12-25T15:49:11.094Z,14.13
2022-12-25T15:51:39.535Z,14.07
2022-12-25T15:54:07.609Z,14.12
2022-12-25T15:56:43.006Z,13.89
2022-12-25T15:59:14.538Z,14.04
2022-12-25T16:01:45.855Z,14.15
2022-12-25T16:04:14.111Z,14.20
2022-12-25T16:06:42.384Z,14.22
2022-12-25T16:09:12.122Z,14.26
2022-12-25T16:11:40.474Z,14.35
2022-12-25T16:14:08.956Z,14.41
2022-12-25T16:16:38.807Z,14.48
2022-12-25T16:19:07.248Z,14.45
2022-12-25T16:21:40.267Z,14.50
2022-12-25T16:24:08.942Z,14.55
2022-12-25T16:26:37.061Z,14.59
2022-12-25T16:29:07.542Z,14.59
2022-12-25T16:31:36.539Z,14.58
2022-12-25T16:34:07.263Z,14.60
2022-12-25T16:36:36.860Z,14.60
2022-12-25T16:39:05.618Z,14.63
2022-12-25T16:41:33.700Z,14.66
2022-12-25T16:44:09.109Z,14.68
2022-12-25T16:46:38.899Z,14.71
2022-12-25T16:49:08.760Z,14.74
2022-12-25T16:51:36.826Z,14.74
2022-12-25T16:54:05.081Z,14.77
2022-12-25T16:56:33.092Z,14.78
2022-12-25T16:59:01.224Z,14.77
2022-12-25T17:01:29.644Z,14.79
2022-12-25T17:04:01.510Z,14.80
2022-12-25T17:06:31.340Z,14.81
2022-12-25T17:09:02.281Z,14.82
2022-12-25T17:11:31.048Z,14.83
2022-12-25T17:14:02.093Z,14.82
2022-12-25T17:16:31.989Z,14.84
2022-12-25T17:19:02.514Z,14.84
2022-12-25T17:21:34.336Z,14.86
2022-12-25T17:24:04.093Z,14.87
2022-12-25T17:26:32.881Z,14.87
2022-12-25T17:29:01.395Z,14.87
2022-12-25T17:31:29.786Z,14.86
2022-12-25T17:33:57.875Z,14.85
2022-12-25T17:36:25.957Z,14.86
2022-12-25T17:38:55.354Z,14.85
2022-12-25T17:41:23.461Z,14.84
2022-12-25T17:43:51.485Z,14.85
2022-12-25T17:46:22.555Z,14.85
2022-12-25T17:48:51.008Z,14.85
2022-12-25T17:51:21.273Z,14.85
2022-12-25T17:53:50.977Z,14.85
2022-12-25T17:56:21.351Z,14.81
2022-12-25T17:58:51.490Z,14.82
2022-12-25T18:01:19.919Z,14.83
2022-12-25T18:03:48.267Z,14.83
2022-12-25T18:06:18.532Z,14.83
2022-12-25T18:08:47.660Z,14.82
2022-12-25T18:11:17.482Z,14.82
2022-12-25T18:13:50.073Z,14.82
2022-12-25T18:16:19.442Z,14.81
2022-12-25T18:18:51.831Z,14.80
2022-12-25T18:21:21.407Z,14.81
2022-12-25T18:23:50.529Z,14.79
2022-12-25T18:26:19.651Z,14.78
2022-12-25T18:28:50.109Z,14.77
2022-12-25T18:31:20.346Z,14.78
2022-12-25T18:33:49.339Z,14.77
2022-12-25T18:36:22.188Z,14.78
2022-12-25T18:38:51.155Z,14.77
2022-12-25T18:41:20.112Z,14.78
2022-12-25T18:43:53.428Z,14.75
2022-12-25T18:46:25.570Z,14.74
2022-12-25T18:48:54.258Z,14.75
2022-12-25T18:51:22.483Z,14.72
2022-12-25T18:53:51.343Z,14.73
2022-12-25T18:56:21.359Z,14.69
2022-12-25T18:58:50.871Z,14.69
2022-12-25T19:01:21.611Z,14.68
2022-12-25T19:03:50.490Z,14.68
2022-12-25T19:06:19.608Z,14.68
2022-12-25T19:08:48.078Z,14.69
2022-12-25T19:11:16.409Z,14.68
2022-12-25T19:13:44.736Z,14.66
2022-12-25T19:16:15.027Z,14.67
2022-12-25T19:18:44.334Z,14.67
2022-12-25T19:21:12.545Z,14.66
2022-12-25T19:23:40.747Z,14.67
2022-12-25T19:26:10.638Z,14.67
2022-12-25T19:28:39.885Z,14.66
2022-12-25T19:31:09.772Z,14.57
2022-12-25T19:33:42.506Z,14.53
2022-12-25T19:36:12.948Z,14.50
2022-12-25T19:38:41.222Z,14.45
2022-12-25T19:41:10.883Z,14.43
2022-12-25T19:43:41.486Z,14.43
2022-12-25T19:46:11.698Z,14.39
2022-12-25T19:48:41.249Z,14.37
2022-12-25T19:51:16.489Z,14.36
2022-12-25T19:53:45.578Z,14.36
2022-12-25T19:56:15.437Z,14.32
2022-12-25T19:58:43.829Z,14.28
2022-12-25T20:01:14.826Z,14.28
2022-12-25T20:03:46.291Z,14.26
2022-12-25T20:06:18.886Z,14.20
2022-12-25T20:08:47.586Z,14.17
2022-12-25T20:11:15.647Z,14.21
2022-12-25T20:13:43.812Z,14.20
2022-12-25T20:16:12.275Z,14.20
2022-12-25T20:18:40.949Z,14.22
2022-12-25T20:21:14.122Z,14.21
2022-12-25T20:23:42.471Z,14.20
2022-12-25T20:26:11.985Z,14.19
2022-12-25T20:28:41.674Z,14.24
2022-12-25T20:31:11.217Z,14.23
2022-12-25T20:33:39.399Z,14.25
2022-12-25T20:36:08.264Z,14.28
2022-12-25T20:38:38.057Z,14.30
2022-12-25T20:43:57.188Z,14.32
2022-12-25T20:46:25.840Z,14.34
2022-12-25T20:48:54.338Z,14.34
2022-12-25T20:51:24.437Z,14.35
2022-12-25T20:53:54.636Z,14.36
2022-12-25T20:56:26.655Z,14.37
2022-12-25T20:58:56.003Z,14.37
2022-12-25T21:01:24.622Z,14.39
2022-12-25T21:03:53.154Z,14.40
2022-12-25T21:06:21.655Z,14.38
2022-12-25T21:08:49.935Z,14.30
2022-12-25T21:11:21.351Z,14.34
2022-12-25T21:13:50.290Z,14.36
2022-12-25T21:16:21.530Z,14.34
2022-12-25T21:18:50.462Z,14.21
2022-12-25T21:21:18.543Z,14.25
2022-12-25T21:23:46.916Z,14.23
2022-12-25T21:26:19.069Z,14.24
2022-12-25T21:28:49.755Z,14.25
2022-12-25T21:31:18.228Z,14.22
2022-12-25T21:33:55.127Z,14.23
2022-12-25T21:36:27.214Z,14.19
2022-12-25T21:38:57.443Z,14.08
2022-12-25T21:41:26.739Z,14.10
2022-12-25T21:43:56.967Z,14.12
2022-12-25T21:46:25.751Z,14.12
2022-12-25T21:48:53.949Z,14.09
2022-12-25T21:51:42.043Z,14.03
2022-12-25T21:54:10.907Z,14.04
2022-12-25T21:56:44.565Z,13.98
2022-12-25T21:59:17.112Z,14.00
2022-12-25T22:01:45.797Z,14.06
2022-12-25T22:04:15.378Z,14.09
2022-12-25T22:07:01.223Z,14.06
2022-12-25T22:09:29.462Z,13.98
2022-12-25T22:12:16.165Z,13.93
2022-12-25T22:14:57.000Z,13.80
2022-12-25T22:17:44.764Z,13.83
2022-12-25T22:20:15.797Z,13.77
2022-12-25T22:22:44.145Z,13.78
2022-12-25T22:25:12.894Z,13.79
2022-12-25T22:27:42.503Z,13.93
2022-12-25T22:30:15.310Z,13.90
2022-12-25T22:32:43.468Z,13.93
2022-12-25T22:35:13.211Z,13.91
2022-12-25T22:37:42.154Z,13.92
2022-12-25T22:40:13.164Z,13.92
2022-12-25T22:42:41.864Z,13.95
2022-12-25T22:45:12.762Z,13.99
2022-12-25T22:47:41.393Z,14.03
2022-12-25T22:50:10.346Z,14.06
2022-12-25T22:52:38.924Z,14.07
2022-12-25T22:55:09.039Z,14.09
2022-12-25T22:57:37.230Z,14.10
2022-12-25T23:00:06.578Z,14.15
2022-12-25T23:02:36.343Z,14.18
2022-12-25T23:05:04.869Z,14.22
2022-12-25T23:07:32.945Z,14.23
2022-12-25T23:10:01.060Z,14.26
2022-12-25T23:12:46.242Z,14.26
2022-12-25T23:15:14.343Z,14.25
2022-12-25T23:18:01.527Z,14.26
2022-12-25T23:20:46.698Z,14.22
2022-12-25T23:23:33.953Z,14.23
2022-12-25T23:26:11.183Z,14.25
2022-12-25T23:29:00.181Z,14.25
2022-12-25T23:31:31.852Z,14.22
2022-12-25T23:34:02.210Z,14.21
2022-12-25T23:36:30.549Z,14.13
2022-12-25T23:39:04.736Z,14.13
2022-12-25T23:41:37.052Z,14.07
2022-12-25T23:44:05.665Z,14.08
2022-12-25T23:46:33.792Z,13.97
2022-12-25T23:49:03.258Z,14.01
2022-12-25T23:51:31.340Z,13.96
2022-12-25T23:53:59.407Z,13.92
2022-12-25T23:56:27.444Z,13.98
2022-12-25T23:58:55.552Z,14.01
